Time;durP1;ratioP1;P1;durP2;ratioP2;P2;SDS_P1;SDS_P2;PMS_P1;PMS_P2;Temp;Humidity;BMP_temperature;BMP_pressure;BME280_temperature;BME280_humidity;BME280_pressure;Samples;Min_cycle;Max_cycle;Signal;HPM_P1;HPM_P2
2022/07/08 00:06:18;;;;;;;14.10;7.33;;;;;;;23.64;53.02;99923.44;30634175;29;20055;-71
2022/07/08 00:21:20;;;;;;;12.10;7.63;;;;;;;23.51;53.56;99917.72;30641715;29;20051;-72
2022/07/08 00:36:23;;;;;;;12.90;6.65;;;;;;;23.62;52.00;99898.28;30628252;29;20059;-72
2022/07/08 00:51:27;;;;;;;16.33;7.33;;;;;;;23.60;50.36;99906.38;30632100;29;20046;-70
2022/07/08 01:06:29;;;;;;;13.98;8.15;;;;;;;23.28;54.00;99906.00;30641184;29;20508;-71
2022/07/08 01:21:31;;;;;;;14.90;8.60;;;;;;;22.88;57.20;99890.81;30659714;28;20103;-72
2022/07/08 01:36:33;;;;;;;12.40;6.77;;;;;;;22.81;58.32;99889.31;30697531;28;20058;-71
2022/07/08 01:51:35;;;;;;;10.67;6.40;;;;;;;22.72;58.72;99898.59;30635845;29;20055;-73
2022/07/08 02:06:37;;;;;;;;;;;;;;;22.63;64.32;99911.97;30616363;29;20055;-72
2022/07/08 02:21:39;;;;;;;15.50;6.47;;;;;;;22.73;58.54;99933.31;30617701;28;19944;-71
2022/07/08 02:36:41;;;;;;;14.43;8.07;;;;;;;22.94;56.32;99941.34;30646659;28;20051;-72
2022/07/08 02:51:43;;;;;;;16.20;7.90;;;;;;;23.16;53.24;99946.81;30611114;29;20087;-72
2022/07/08 03:06:45;;;;;;;11.60;7.53;;;;;;;23.30;49.28;99954.06;30617862;29;20059;-72
2022/07/08 03:21:47;;;;;;;8.80;7.43;;;;;;;23.56;47.18;99956.50;30613571;29;20541;-71
2022/07/08 03:36:49;;;;;;;13.70;6.47;;;;;;;23.99;44.37;99959.53;30636132;29;20413;-71
2022/07/08 03:51:51;;;;;;;12.07;5.50;;;;;;;24.45;43.93;99972.56;30615787;29;20055;-71
2022/07/08 04:06:54;;;;;;;15.05;6.68;;;;;;;24.85;42.03;99975.72;30631800;29;20056;-72
2022/07/08 04:21:55;;;;;;;16.33;6.40;;;;;;;25.64;40.59;99981.94;30637667;28;20501;-72
2022/07/08 04:36:57;;;;;;;;;;;;;;;25.95;39.83;99983.28;30626069;29;20403;-72
2022/07/08 04:51:59;;;;;;;16.02;7.63;;;;;;;26.52;39.17;99978.34;30621618;29;19926;-72
2022/07/08 05:07:02;;;;;;;16.60;7.25;;;;;;;27.42;36.52;99999.75;30618449;29;20063;-71
2022/07/08 05:22:04;;;;;;;10.95;5.82;;;;;;;27.79;34.88;100004.34;30616329;29;20052;-71
2022/07/08 05:37:06;;;;;;;15.70;6.53;;;;;;;28.49;34.19;99996.13;30610305;28;20060;-71
2022/07/08 05:52:09;;;;;;;14.43;6.22;;;;;;;29.08;31.52;99999.19;30624309;28;20054;-73
2022/07/08 06:07:11;;;;;;;6.88;3.72;;;;;;;29.21;30.80;99990.69;30607253;29;20059;-71
2022/07/08 06:22:13;;;;;;;5.65;3.25;;;;;;;29.73;30.60;99988.72;30602225;29;20055;-72
2022/07/08 06:37:15;;;;;;;6.25;2.67;;;;;;;30.52;29.61;99988.47;30611448;29;20532;-74
2022/07/08 06:52:19;;;;;;;7.60;2.80;;;;;;;31.18;28.05;99984.69;30629822;29;20107;-72
2022/07/08 07:07:21;;;;;;;4.32;1.73;;;;;;;31.82;26.14;99974.19;30619563;29;20402;-73
2022/07/08 07:22:23;;;;;;;9.13;2.83;;;;;;;32.50;24.97;99954.03;30628407;29;20058;-73
2022/07/08 07:37:25;;;;;;;8.48;2.05;;;;;;;32.36;22.88;99954.94;30635747;29;20145;-71
2022/07/08 07:52:27;;;;;;;3.33;1.50;;;;;;;32.64;21.31;99951.66;30624876;29;20498;-70
2022/07/08 08:07:29;;;;;;;7.93;2.20;;;;;;;32.68;22.03;99940.03;30616904;29;20056;-78
2022/07/08 08:22:32;;;;;;;9.15;1.65;;;;;;;33.51;20.72;99947.56;30605019;29;20059;-72
2022/07/08 08:37:33;;;;;;;10.65;3.13;;;;;;;33.48;20.06;99934.66;30609930;29;20055;-72
2022/07/08 08:52:35;;;;;;;7.60;3.10;;;;;;;34.27;20.11;99925.22;30595033;29;20052;-79
2022/07/08 09:07:37;;;;;;;7.95;3.40;;;;;;;33.87;20.97;99920.78;30598010;29;20074;-77
2022/07/08 09:22:39;;;;;;;8.73;4.85;;;;;;;34.47;20.97;99899.38;30599013;28;20537;-74
2022/07/08 09:37:41;;;;;;;5.93;4.40;;;;;;;34.38;20.80;99907.78;30606317;29;20066;-79
2022/07/08 09:52:43;;;;;;;9.90;3.13;;;;;;;35.37;18.74;99884.09;30619960;29;20044;-71
2022/07/08 10:07:48;;;;;;;3.78;2.70;;;;;;;35.96;19.78;99891.00;30624650;29;20062;-84
2022/07/08 10:22:55;;;;;;;6.97;2.30;;;;;;;35.91;18.92;99877.94;30633507;29;20421;-81
2022/07/08 10:38:01;;;;;;;5.77;2.40;;;;;;;36.01;19.48;99881.47;30625226;29;20062;-82
2022/07/08 10:53:06;;;;;;;9.07;1.92;;;;;;;36.21;19.12;99865.16;30653991;29;20150;-81
2022/07/08 11:08:20;;;;;;;3.47;1.67;;;;;;;36.68;17.95;99854.84;30646412;28;20056;-81
2022/07/08 11:23:22;;;;;;;7.03;1.88;;;;;;;35.76;18.60;99841.59;30628710;29;20060;-81
2022/07/08 11:38:37;;;;;;;6.38;1.70;;;;;;;34.46;18.99;99832.34;30619341;29;20425;-78
2022/07/08 11:53:39;;;;;;;4.03;1.23;;;;;;;34.05;19.09;99848.97;30639204;29;20054;-79
2022/07/08 12:08:43;;;;;;;3.30;2.17;;;;;;;33.52;20.71;99808.34;30655225;28;20051;-77
2022/07/08 12:24:00;;;;;;;2.42;1.33;;;;;;;33.27;21.23;99821.84;30658006;28;20158;-82
2022/07/08 12:39:31;;;;;;;7.85;1.88;;;;;;;33.24;21.93;99808.19;30647986;29;20055;-80
2022/07/08 12:54:34;;;;;;;4.05;1.65;;;;;;;33.17;21.88;99787.28;30636256;28;20044;-80
2022/07/08 13:09:37;;;;;;;5.47;1.67;;;;;;;33.28;20.91;99789.59;30636519;29;20051;-81
2022/07/08 13:24:39;;;;;;;5.72;1.77;;;;;;;33.06;20.83;99768.16;30642733;29;20081;-80
2022/07/08 13:39:41;;;;;;;6.78;2.00;;;;;;;32.54;21.68;99763.34;30621009;29;20052;-80
2022/07/08 13:54:43;;;;;;;4.85;2.20;;;;;;;32.84;21.10;99755.84;30633869;28;20082;-79
2022/07/08 14:09:49;;;;;;;5.80;3.30;;;;;;;32.84;21.40;99728.50;30640086;29;20082;-80
2022/07/08 14:24:51;;;;;;;4.25;2.35;;;;;;;32.37;21.70;99726.09;30641562;29;20056;-80
2022/07/08 14:39:52;;;;;;;5.22;2.83;;;;;;;32.17;21.79;99717.47;30616173;29;20058;-82
2022/07/08 14:54:54;;;;;;;3.83;2.22;;;;;;;32.44;21.73;99719.63;30624896;29;20047;-83
2022/07/08 15:09:56;;;;;;;5.70;2.63;;;;;;;32.16;21.68;99718.81;30662184;28;20051;-81
2022/07/08 15:24:58;;;;;;;8.52;2.80;;;;;;;31.61;22.84;99710.75;30652561;29;20056;-77
2022/07/08 15:40:05;;;;;;;4.20;2.78;;;;;;;31.52;22.96;99709.31;30641210;29;20054;-80
2022/07/08 15:55:07;;;;;;;6.90;4.88;;;;;;;31.48;22.92;99716.63;30652064;29;20159;-78
2022/07/08 16:10:10;;;;;;;6.22;5.00;;;;;;;31.45;22.60;99715.72;30640714;29;20063;-78
2022/07/08 16:25:12;;;;;;;12.20;4.13;;;;;;;31.20;22.88;99729.00;30644503;28;20059;-79
2022/07/08 16:40:14;;;;;;;8.43;4.22;;;;;;;31.01;23.62;99723.13;30619879;29;20048;-76
2022/07/08 16:55:16;;;;;;;9.70;4.50;;;;;;;30.82;23.68;99732.75;30635535;29;20048;-77
2022/07/08 17:10:19;;;;;;;10.10;4.63;;;;;;;30.44;24.65;99721.72;30637564;29;20059;-81
2022/07/08 17:25:20;;;;;;;13.82;5.55;;;;;;;30.12;24.70;99727.22;30638443;29;20138;-81
2022/07/08 17:40:23;;;;;;;8.65;5.07;;;;;;;29.86;24.96;99723.50;30646915;29;20085;-81
2022/07/08 17:55:27;;;;;;;10.52;4.95;;;;;;;29.62;25.63;99737.34;30625205;29;20054;-80
2022/07/08 18:10:29;;;;;;;7.20;4.68;;;;;;;29.34;26.37;99749.41;30644389;29;20114;-80
2022/07/08 18:25:31;;;;;;;14.27;4.63;;;;;;;29.08;27.25;99765.19;30647642;29;20059;-79
2022/07/08 18:40:33;;;;;;;7.63;3.60;;;;;;;28.59;29.09;99773.75;30624669;29;20470;-80
2022/07/08 18:55:35;;;;;;;9.70;3.10;;;;;;;28.12;32.07;99783.13;30620187;29;20422;-81
2022/07/08 19:10:37;;;;;;;17.95;3.40;;;;;;;27.81;33.36;99795.38;30650558;29;20682;-80
2022/07/08 19:25:39;;;;;;;7.70;2.55;;;;;;;27.40;35.32;99790.53;30652623;29;20081;-81
2022/07/08 19:40:41;;;;;;;11.90;4.32;;;;;;;27.10;36.85;99782.59;30648345;29;20110;-81
2022/07/08 19:55:43;;;;;;;14.32;3.53;;;;;;;26.76;35.92;99780.50;30660638;29;20505;-82
2022/07/08 20:10:46;;;;;;;8.00;3.47;;;;;;;26.58;37.74;99775.81;30647188;29;20079;-80
2022/07/08 20:25:50;;;;;;;9.20;2.50;;;;;;;26.40;39.80;99765.56;30658365;29;20059;-79
2022/07/08 20:56:13;;;;;;;9.00;5.68;;;;;;;25.88;40.49;99750.31;30622046;29;20055;-79
2022/07/08 21:11:15;;;;;;;10.68;3.47;;;;;;;25.64;41.07;99744.94;30666344;29;20387;-79
2022/07/08 21:26:17;;;;;;;;;;;;;;;25.44;42.41;99730.31;30634367;29;20536;-79
2022/07/08 21:41:19;;;;;;;13.23;3.53;;;;;;;25.36;40.76;99714.78;30632020;29;19930;-80
2022/07/08 21:56:21;;;;;;;10.68;4.63;;;;;;;25.19;41.28;99714.31;30629858;29;20062;-80
2022/07/08 22:11:23;;;;;;;;;;;;;;;24.91;43.58;99706.38;30640841;29;20051;-79
2022/07/08 22:26:25;;;;;;;6.22;3.22;;;;;;;24.55;43.10;99689.97;30637841;29;19945;-80
2022/07/08 22:41:26;;;;;;;15.33;3.50;;;;;;;24.44;43.39;99696.41;30629786;29;20062;-79
2022/07/08 22:56:28;;;;;;;5.63;2.93;;;;;;;24.13;43.55;99692.19;30624859;29;20051;-79
2022/07/08 23:11:31;;;;;;;4.10;2.73;;;;;;;23.97;44.11;99687.59;30656483;29;20390;-78
2022/07/08 23:26:33;;;;;;;9.03;2.97;;;;;;;23.84;44.39;99692.28;30667422;28;20367;-79
2022/07/08 23:41:35;;;;;;;14.33;2.87;;;;;;;23.83;44.27;99691.53;30652564;29;20158;-78
2022/07/08 23:56:37;;;;;;;11.00;2.80;;;;;;;23.73;44.60;99682.06;30637744;28;20397;-80
